Time;durP1;ratioP1;P1;durP2;ratioP2;P2;SDS_P1;SDS_P2;PMS_P1;PMS_P2;Temp;Humidity;BMP_temperature;BMP_pressure;BME280_temperature;BME280_humidity;BME280_pressure;Samples;Min_cycle;Max_cycle;Signal;HPM_P1;HPM_P2
2024/01/18 00:02:40;;;;;;;34.08;31.75;;;7.60;85.30;;;;;;12654692;28;20028;-76
2024/01/18 00:08:42;;;;;;;44.20;41.22;;;7.70;85.50;;;;;;12654456;28;20028;-76
2024/01/18 00:14:43;;;;;;;31.33;28.77;;;7.70;85.30;;;;;;12637620;28;20032;-76
2024/01/18 00:20:45;;;;;;;42.10;39.03;;;7.80;85.20;;;;;;12635992;28;20036;-76
2024/01/18 00:26:46;;;;;;;43.30;39.67;;;7.80;85.10;;;;;;12653929;28;20043;-76
2024/01/18 00:32:48;;;;;;;30.55;28.00;;;7.90;85.20;;;;;;12635881;28;20036;-76
2024/01/18 00:38:49;;;;;;;33.72;31.10;;;7.90;85.20;;;;;;12644155;28;20040;-75
2024/01/18 00:44:51;;;;;;;41.03;38.38;;;7.70;85.00;;;;;;12648105;28;20040;-78
2024/01/18 00:50:52;;;;;;;31.58;29.15;;;7.60;85.10;;;;;;12629493;28;20467;-76
2024/01/18 00:56:54;;;;;;;23.23;21.35;;;7.70;85.30;;;;;;12663243;28;20040;-76
2024/01/18 01:02:55;;;;;;;22.63;20.27;;;7.80;85.30;;;;;;12645134;28;20051;-76
2024/01/18 01:08:57;;;;;;;34.10;30.65;;;7.80;85.40;;;;;;12644751;28;20036;-75
2024/01/18 01:14:58;;;;;;;29.00;26.63;;;7.90;85.50;;;;;;12662580;28;20035;-75
2024/01/18 01:21:00;;;;;;;28.73;26.42;;;7.90;85.30;;;;;;12644346;28;20047;-75
2024/01/18 01:27:02;;;;;;;34.38;31.77;;;7.80;85.20;;;;;;12643972;28;20032;-75
2024/01/18 01:33:04;;;;;;;23.23;21.08;;;7.80;85.20;;;;;;12644356;28;20031;-75
2024/01/18 01:39:06;;;;;;;35.10;32.92;;;7.90;85.00;;;;;;12661493;28;20252;-75
2024/01/18 01:45:08;;;;;;;25.35;23.30;;;7.80;85.00;;;;;;12643577;28;20041;-75
2024/01/18 01:51:10;;;;;;;26.40;24.20;;;7.80;85.00;;;;;;12625438;28;20047;-74
2024/01/18 01:57:12;;;;;;;25.55;23.35;;;7.70;85.10;;;;;;12643002;28;20345;-74
2024/01/18 02:03:17;;;;;;;27.23;24.77;;;7.60;85.10;;;;;;12642810;28;20436;-74
2024/01/18 02:09:19;;;;;;;24.80;22.70;;;7.50;85.10;;;;;;12659999;28;20063;-74
2024/01/18 02:15:21;;;;;;;32.65;30.15;;;7.50;85.40;;;;;;12643058;28;20034;-75
2024/01/18 02:21:25;;;;;;;23.40;21.48;;;7.50;85.40;;;;;;12659408;28;20039;-76
2024/01/18 02:27:27;;;;;;;24.90;23.15;;;7.60;85.30;;;;;;12641576;28;20036;-76
2024/01/18 02:33:54;;;;;;;22.98;21.02;;;7.70;85.30;;;;;;12658772;28;20043;-74
2024/01/18 02:39:56;;;;;;;20.45;18.58;;;7.70;85.30;;;;;;12658397;28;20035;-74
2024/01/18 02:45:58;;;;;;;19.27;17.58;;;7.50;84.90;;;;;;12658220;28;20051;-74
2024/01/18 02:52:01;;;;;;;20.55;18.83;;;7.30;85.10;;;;;;12658694;28;20035;-74
2024/01/18 02:58:06;;;;;;;25.63;23.60;;;7.30;85.30;;;;;;12657243;28;20036;-74
2024/01/18 03:04:14;;;;;;;15.20;13.57;;;7.20;85.20;;;;;;12657175;28;20043;-74
2024/01/18 03:10:19;;;;;;;19.80;17.90;;;7.10;85.30;;;;;;12638561;28;20051;-74
2024/01/18 03:16:20;;;;;;;25.35;22.40;;;7.00;85.30;;;;;;12656783;28;20043;-73
2024/01/18 03:22:23;;;;;;;22.42;20.13;;;6.90;85.40;;;;;;12638504;28;20448;-73
2024/01/18 03:28:28;;;;;;;25.67;23.08;;;6.80;85.50;;;;;;12622022;28;20028;-73
2024/01/18 03:34:30;;;;;;;20.52;18.63;;;6.70;85.80;;;;;;12638495;28;20028;-74
2024/01/18 03:40:32;;;;;;;17.15;15.35;;;6.70;85.80;;;;;;12637461;28;20040;-73
2024/01/18 03:46:33;;;;;;;19.85;18.13;;;6.70;85.60;;;;;;12638088;28;20032;-74
2024/01/18 03:52:35;;;;;;;19.70;17.90;;;6.70;85.50;;;;;;12620567;28;20047;-73
2024/01/18 03:58:37;;;;;;;17.45;15.85;;;6.70;85.60;;;;;;12637016;28;20036;-74
2024/01/18 04:04:38;;;;;;;38.90;36.55;;;6.60;85.60;;;;;;12655205;28;20028;-74
2024/01/18 04:10:40;;;;;;;24.42;22.88;;;6.70;85.60;;;;;;12635796;28;20035;-74
2024/01/18 04:16:41;;;;;;;23.85;22.15;;;6.80;85.50;;;;;;12620007;28;20044;-74
2024/01/18 04:22:43;;;;;;;40.17;37.80;;;6.80;85.50;;;;;;12636784;28;20114;-73
2024/01/18 04:28:45;;;;;;;15.05;13.65;;;6.80;85.40;;;;;;12654036;28;20039;-73
2024/01/18 04:34:47;;;;;;;16.30;14.77;;;6.70;85.50;;;;;;12635583;28;20047;-73
2024/01/18 04:40:48;;;;;;;28.63;26.60;;;6.70;85.50;;;;;;12635585;28;20348;-73
2024/01/18 04:46:50;;;;;;;15.70;14.30;;;6.70;85.60;;;;;;12635764;28;20036;-73
2024/01/18 04:52:52;;;;;;;32.35;30.23;;;6.70;85.60;;;;;;12635347;28;20039;-73
2024/01/18 04:58:54;;;;;;;14.90;13.55;;;6.70;85.70;;;;;;12635417;28;20039;-73
2024/01/18 05:04:55;;;;;;;12.93;11.65;;;6.70;85.70;;;;;;12653169;28;20028;-73
2024/01/18 05:10:57;;;;;;;11.15;10.10;;;6.70;85.70;;;;;;12635056;28;20032;-73
2024/01/18 05:17:29;;;;;;;12.88;11.68;;;6.70;85.70;;;;;;12634896;28;20043;-74
2024/01/18 05:23:31;;;;;;;20.15;18.75;;;6.70;85.70;;;;;;12640456;28;20094;-73
2024/01/18 05:29:33;;;;;;;17.13;15.68;;;6.70;85.60;;;;;;12643927;28;20185;-74
2024/01/18 05:35:35;;;;;;;40.90;38.72;;;6.70;85.70;;;;;;12644529;28;20043;-74
2024/01/18 05:41:36;;;;;;;10.23;9.23;;;6.70;85.70;;;;;;12643340;28;20036;-74
2024/01/18 05:47:39;;;;;;;15.13;14.15;;;6.80;85.60;;;;;;12661120;28;20035;-74
2024/01/18 05:53:42;;;;;;;7.78;7.07;;;7.00;85.50;;;;;;12660840;28;20031;-74
2024/01/18 05:59:43;;;;;;;21.02;19.77;;;7.00;85.40;;;;;;12660421;28;20348;-73
2024/01/18 06:05:45;;;;;;;11.25;10.18;;;6.90;85.40;;;;;;12660266;28;20032;-74
2024/01/18 06:11:48;;;;;;;9.23;7.28;;;6.90;85.50;;;;;;12659963;28;20321;-74
2024/01/18 06:17:50;;;;;;;42.70;39.95;;;6.90;85.60;;;;;;12659667;28;20463;-73
2024/01/18 06:23:52;;;;;;;32.05;30.35;;;6.90;85.60;;;;;;12659274;28;20198;-73
2024/01/18 06:29:54;;;;;;;12.95;10.07;;;7.00;85.70;;;;;;12659193;28;20098;-73
2024/01/18 06:35:56;;;;;;;10.10;9.30;;;6.90;85.60;;;;;;12639983;28;20436;-73
2024/01/18 06:41:58;;;;;;;33.17;31.38;;;6.90;85.60;;;;;;12657575;28;20032;-73
2024/01/18 06:47:59;;;;;;;18.35;16.92;;;6.90;85.70;;;;;;12658841;28;20336;-73
2024/01/18 06:54:01;;;;;;;13.13;11.82;;;7.00;86.10;;;;;;12657597;28;20039;-74
2024/01/18 07:00:03;;;;;;;22.27;20.88;;;7.30;85.50;;;;;;12663710;22;20055;-74
2024/01/18 07:06:05;;;;;;;22.55;21.08;;;7.20;85.60;;;;;;12657171;28;20032;-74
2024/01/18 07:12:08;;;;;;;10.73;9.60;;;7.20;85.60;;;;;;12639437;28;20451;-74
2024/01/18 07:18:10;;;;;;;10.13;7.22;;;7.20;85.70;;;;;;12656585;28;20356;-74
2024/01/18 07:24:12;;;;;;;27.40;25.73;;;7.60;85.90;;;;;;12656345;28;20058;-74
2024/01/18 07:30:14;;;;;;;14.80;13.00;;;7.60;85.30;;;;;;12656310;28;20455;-73
2024/01/18 07:36:17;;;;;;;16.10;14.57;;;7.30;85.20;;;;;;12638717;28;20031;-74
2024/01/18 07:42:19;;;;;;;20.25;18.80;;;7.10;85.50;;;;;;12655615;28;20031;-74
2024/01/18 07:48:20;;;;;;;18.65;17.05;;;7.20;86.10;;;;;;12620177;28;20028;-74
2024/01/18 07:54:22;;;;;;;44.92;42.53;;;7.20;85.90;;;;;;12654726;28;20032;-74
2024/01/18 08:00:25;;;;;;;19.95;18.30;;;7.20;85.80;;;;;;12632329;28;20042;-75
2024/01/18 08:06:27;;;;;;;27.38;25.42;;;7.30;86.00;;;;;;12637750;28;20039;-74
2024/01/18 08:12:28;;;;;;;41.03;38.58;;;7.50;86.20;;;;;;12655211;28;20039;-75
2024/01/18 08:18:30;;;;;;;24.58;22.73;;;7.80;85.90;;;;;;12654335;28;20036;-74
2024/01/18 08:24:32;;;;;;;36.05;33.55;;;8.20;86.10;;;;;;12654741;28;20036;-74
2024/01/18 08:30:34;;;;;;;98.00;93.90;;;8.40;85.60;;;;;;12653949;28;20028;-74
2024/01/18 08:36:36;;;;;;;71.05;67.57;;;8.70;85.30;;;;;;12654410;28;20024;-74
2024/01/18 08:42:38;;;;;;;97.63;93.20;;;8.40;85.20;;;;;;12653585;28;20032;-74
2024/01/18 08:48:39;;;;;;;137.30;131.55;;;8.60;85.90;;;;;;12635643;28;20078;-74
2024/01/18 08:54:44;;;;;;;119.55;114.53;;;9.10;85.70;;;;;;12636217;28;20044;-74
2024/01/18 09:00:46;;;;;;;88.05;83.65;;;9.40;85.40;;;;;;12645428;28;20043;-74
2024/01/18 09:06:48;;;;;;;134.57;128.85;;;9.50;85.10;;;;;;12644774;28;20035;-74
2024/01/18 09:12:50;;;;;;;132.20;126.60;;;9.30;84.60;;;;;;12662827;28;20035;-74
2024/01/18 09:18:51;;;;;;;88.68;84.90;;;9.00;84.70;;;;;;12644520;28;20036;-74
2024/01/18 09:24:53;;;;;;;93.85;89.72;;;8.70;85.30;;;;;;12644318;28;20036;-74
2024/01/18 09:30:55;;;;;;;63.35;59.95;;;8.70;85.60;;;;;;12662101;28;20043;-74
2024/01/18 09:36:57;;;;;;;52.80;50.17;;;8.40;85.10;;;;;;12643644;28;20340;-74
2024/01/18 09:43:01;;;;;;;52.85;50.20;;;8.40;85.80;;;;;;12661376;28;20471;-74
2024/01/18 09:49:03;;;;;;;54.60;51.92;;;8.40;85.70;;;;;;12661153;28;20036;-74
2024/01/18 09:55:08;;;;;;;50.97;47.80;;;8.50;85.70;;;;;;12662325;28;20094;-74
2024/01/18 10:01:16;;;;;;;42.65;40.17;;;8.30;85.50;;;;;;12660466;28;20028;-74
2024/01/18 10:07:18;;;;;;;58.70;55.60;;;8.20;85.60;;;;;;12659797;28;20028;-74
2024/01/18 10:13:20;;;;;;;38.05;35.65;;;8.20;85.80;;;;;;12659883;28;20035;-74
2024/01/18 10:19:21;;;;;;;66.35;63.10;;;8.40;85.90;;;;;;12659683;28;20032;-74
2024/01/18 10:25:25;;;;;;;63.85;60.47;;;8.50;85.60;;;;;;12659498;28;20032;-74
2024/01/18 10:31:27;;;;;;;62.00;58.55;;;8.50;85.50;;;;;;12659123;28;20436;-74
2024/01/18 10:37:29;;;;;;;107.75;102.53;;;8.50;85.50;;;;;;12641389;28;20039;-74
2024/01/18 10:43:33;;;;;;;81.93;77.63;;;8.30;85.20;;;;;;12658607;28;20352;-74
2024/01/18 10:49:36;;;;;;;58.13;54.70;;;8.20;85.50;;;;;;12640296;28;20459;-74
2024/01/18 10:55:38;;;;;;;86.53;82.15;;;8.20;85.10;;;;;;12658032;28;20036;-74
2024/01/18 11:01:40;;;;;;;51.60;48.13;;;8.10;85.30;;;;;;12639326;28;20039;-74
2024/01/18 11:07:42;;;;;;;36.60;33.88;;;8.00;85.20;;;;;;12657460;28;20340;-74
2024/01/18 11:13:45;;;;;;;47.53;44.72;;;8.00;85.50;;;;;;12657555;28;20024;-74
2024/01/18 11:19:49;;;;;;;34.50;31.92;;;8.00;85.50;;;;;;12657239;28;20028;-74
2024/01/18 11:25:50;;;;;;;45.70;42.90;;;8.30;85.90;;;;;;12656577;28;20027;-74
2024/01/18 11:31:52;;;;;;;66.93;62.97;;;8.20;85.40;;;;;;12639298;28;20044;-74
2024/01/18 11:38:20;;;;;;;58.80;55.58;;;8.20;85.40;;;;;;12656091;28;20340;-74
2024/01/18 11:44:22;;;;;;;49.25;46.50;;;8.10;85.60;;;;;;12655846;28;20028;-74
2024/01/18 11:50:24;;;;;;;41.08;38.33;;;8.10;85.50;;;;;;12655639;28;20028;-75
2024/01/18 11:56:28;;;;;;;62.22;58.72;;;8.10;85.30;;;;;;12655527;28;20031;-74
2024/01/18 12:02:30;;;;;;;38.58;36.30;;;8.20;85.90;;;;;;12654889;28;20031;-74
2024/01/18 12:08:32;;;;;;;68.35;64.72;;;8.40;85.70;;;;;;12652822;28;20032;-74
2024/01/18 12:14:40;;;;;;;46.53;43.60;;;8.50;85.70;;;;;;12654040;28;20024;-74
2024/01/18 12:20:43;;;;;;;66.82;63.05;;;8.70;86.20;;;;;;12636100;28;20040;-74
2024/01/18 12:26:45;;;;;;;133.43;127.13;;;9.10;86.20;;;;;;12654360;28;20024;-74
2024/01/18 12:32:49;;;;;;;99.82;95.20;;;9.10;86.00;;;;;;12653398;28;20046;-74
2024/01/18 12:38:52;;;;;;;145.77;139.23;;;9.30;86.20;;;;;;12653864;28;20031;-74
2024/01/18 12:44:56;;;;;;;132.07;126.35;;;9.40;85.80;;;;;;12653631;28;20433;-74
2024/01/18 12:50:58;;;;;;;139.68;133.68;;;9.40;85.70;;;;;;12654236;28;20028;-74
2024/01/18 12:57:06;;;;;;;142.18;135.85;;;9.30;86.00;;;;;;12653368;28;20036;-74
2024/01/18 13:03:17;;;;;;;170.48;163.48;;;9.40;86.00;;;;;;12653288;28;20036;-74
2024/01/18 13:09:21;;;;;;;181.77;174.27;;;9.50;85.90;;;;;;12635981;28;20054;-74
2024/01/18 13:15:23;;;;;;;62.92;59.42;;;9.70;86.20;;;;;;12634918;28;20048;-74
2024/01/18 13:21:25;;;;;;;212.68;203.88;;;9.70;85.80;;;;;;12653600;28;20463;-74
2024/01/18 13:27:27;;;;;;;107.50;102.85;;;9.90;86.10;;;;;;12652791;28;20028;-73
2024/01/18 13:33:29;;;;;;;131.25;126.03;;;10.10;85.90;;;;;;12634512;28;20035;-73
2024/01/18 13:39:31;;;;;;;45.42;42.72;;;10.30;85.80;;;;;;12652301;28;20032;-73
2024/01/18 13:45:33;;;;;;;132.85;127.63;;;10.40;85.10;;;;;;12641011;28;20179;-73
2024/01/18 13:51:35;;;;;;;149.27;143.23;;;9.80;85.10;;;;;;12642990;28;20032;-73
2024/01/18 13:57:37;;;;;;;158.10;151.73;;;9.60;85.60;;;;;;12643442;28;20039;-73
2024/01/18 14:03:41;;;;;;;171.90;165.18;;;9.60;85.90;;;;;;12660386;28;20036;-74
2024/01/18 14:09:43;;;;;;;140.63;134.68;;;9.70;85.50;;;;;;12660007;28;20032;-73
2024/01/18 14:15:45;;;;;;;82.97;78.85;;;10.10;85.90;;;;;;12660395;28;20035;-73
2024/01/18 14:21:47;;;;;;;73.97;70.35;;;10.50;85.10;;;;;;12641572;28;20463;-73
2024/01/18 14:27:48;;;;;;;36.22;33.72;;;10.60;84.50;;;;;;12659242;28;20039;-73
2024/01/18 14:33:50;;;;;;;27.23;24.98;;;10.70;84.50;;;;;;12642039;28;20352;-73
2024/01/18 14:39:52;;;;;;;16.25;14.35;;;10.80;84.20;;;;;;12641136;28;20047;-73
2024/01/18 14:45:54;;;;;;;15.93;13.32;;;11.00;84.10;;;;;;12658306;28;20032;-73
2024/01/18 14:51:56;;;;;;;21.73;12.38;;;10.80;83.80;;;;;;12657921;28;20341;-73
2024/01/18 14:57:58;;;;;;;16.67;13.75;;;10.80;84.10;;;;;;12651283;22;20056;-73
2024/01/18 15:04:00;;;;;;;17.67;15.23;;;10.70;84.20;;;;;;12657339;28;20040;-73
2024/01/18 15:10:02;;;;;;;17.98;16.08;;;10.80;83.70;;;;;;12657132;28;20028;-73
2024/01/18 15:16:04;;;;;;;19.10;17.40;;;10.70;84.10;;;;;;12656803;28;20036;-73
2024/01/18 15:22:06;;;;;;;20.45;18.45;;;10.70;84.10;;;;;;12656341;28;20035;-73
2024/01/18 15:28:08;;;;;;;20.67;18.75;;;10.70;83.80;;;;;;12638271;28;20035;-74
2024/01/18 15:34:13;;;;;;;29.80;26.83;;;10.70;83.90;;;;;;12657333;28;20059;-73
2024/01/18 15:40:15;;;;;;;28.60;26.67;;;10.70;83.50;;;;;;12637765;28;20043;-74
2024/01/18 15:46:22;;;;;;;41.83;39.10;;;10.70;83.50;;;;;;12637509;28;20040;-73
2024/01/18 15:52:24;;;;;;;54.80;51.53;;;10.50;83.70;;;;;;12655318;28;20437;-73
2024/01/18 15:58:25;;;;;;;83.82;79.70;;;10.50;83.70;;;;;;12636848;28;20047;-73
2024/01/18 16:04:27;;;;;;;64.60;61.17;;;10.40;83.90;;;;;;12636738;28;20099;-73
2024/01/18 16:10:29;;;;;;;88.25;84.00;;;10.30;84.00;;;;;;12654150;28;20027;-73
2024/01/18 16:16:31;;;;;;;81.90;77.55;;;10.40;83.80;;;;;;12654425;28;20318;-73
2024/01/18 16:22:33;;;;;;;123.93;118.40;;;10.30;83.90;;;;;;12654157;28;20032;-73
2024/01/18 16:28:35;;;;;;;111.63;105.78;;;10.30;84.00;;;;;;12635937;28;20032;-74
2024/01/18 16:34:37;;;;;;;156.40;149.23;;;10.20;84.00;;;;;;12636035;28;20024;-75
2024/01/18 16:40:42;;;;;;;156.30;149.35;;;10.10;84.00;;;;;;12653852;28;20035;-74
2024/01/18 16:46:44;;;;;;;139.18;132.65;;;10.10;84.30;;;;;;12653722;28;20032;-74
2024/01/18 16:52:46;;;;;;;124.60;118.85;;;10.20;84.30;;;;;;12653659;28;20032;-74
2024/01/18 16:58:48;;;;;;;115.90;110.60;;;10.20;84.10;;;;;;12653539;28;20039;-74
2024/01/18 17:04:49;;;;;;;134.00;128.07;;;10.30;84.00;;;;;;12653327;28;20035;-73
2024/01/18 17:10:51;;;;;;;82.82;78.60;;;10.10;83.90;;;;;;12653184;28;20094;-73
2024/01/18 17:16:53;;;;;;;104.55;99.72;;;10.10;84.30;;;;;;12636990;28;20032;-74
2024/01/18 17:22:55;;;;;;;125.18;119.82;;;10.20;84.10;;;;;;12663054;28;20032;-74
2024/01/18 17:28:56;;;;;;;93.45;88.68;;;10.20;84.10;;;;;;12662265;28;20356;-74
2024/01/18 17:34:58;;;;;;;97.57;92.57;;;10.40;84.30;;;;;;12643980;28;20032;-73
2024/01/18 17:41:00;;;;;;;97.35;92.78;;;10.50;83.90;;;;;;12712159;28;20031;-74
2024/01/18 17:47:02;;;;;;;95.68;90.97;;;10.70;83.90;;;;;;12712080;28;20344;-74
2024/01/18 17:53:04;;;;;;;118.68;113.32;;;10.60;83.40;;;;;;12711866;28;20039;-73
2024/01/18 17:59:06;;;;;;;180.35;173.02;;;10.00;83.80;;;;;;12711464;28;20023;-74
2024/01/18 18:05:07;;;;;;;147.10;140.27;;;9.60;84.20;;;;;;12711255;28;20039;-73
2024/01/18 18:11:09;;;;;;;92.45;87.00;;;9.40;84.50;;;;;;12710975;28;20031;-73
2024/01/18 18:17:11;;;;;;;69.32;65.50;;;9.20;84.70;;;;;;12710524;28;20035;-74
2024/01/18 18:23:13;;;;;;;100.55;95.55;;;9.20;84.90;;;;;;12692134;28;20035;-73
2024/01/18 18:29:15;;;;;;;122.95;117.05;;;9.50;85.00;;;;;;12690896;28;20359;-73
2024/01/18 18:35:17;;;;;;;90.75;86.22;;;9.50;84.50;;;;;;12691721;28;20043;-74
2024/01/18 18:41:19;;;;;;;94.57;89.85;;;9.20;84.70;;;;;;12709463;28;20347;-73
2024/01/18 18:47:21;;;;;;;59.28;55.20;;;9.20;85.00;;;;;;12691099;28;20035;-73
2024/01/18 18:53:23;;;;;;;71.60;67.40;;;9.50;85.10;;;;;;12708880;28;20050;-73
2024/01/18 18:59:26;;;;;;;61.83;57.53;;;9.50;84.70;;;;;;12708800;28;20031;-73
2024/01/18 19:05:28;;;;;;;71.57;67.10;;;9.30;84.90;;;;;;12690720;28;20038;-73
2024/01/18 19:11:33;;;;;;;76.82;71.57;;;9.40;85.00;;;;;;12708639;28;20343;-73
2024/01/18 19:17:36;;;;;;;66.07;61.40;;;9.40;84.90;;;;;;12672603;28;20050;-73
2024/01/18 19:23:39;;;;;;;62.53;58.08;;;9.30;85.00;;;;;;12707275;28;20343;-73
2024/01/18 19:29:41;;;;;;;78.10;72.95;;;9.40;84.90;;;;;;12707100;28;20024;-73
2024/01/18 19:35:44;;;;;;;69.20;64.05;;;9.50;84.80;;;;;;12706837;28;20031;-73
2024/01/18 19:41:45;;;;;;;80.18;73.80;;;9.40;84.80;;;;;;12706240;28;20065;-73
2024/01/18 19:47:48;;;;;;;59.97;55.75;;;9.20;84.80;;;;;;12688031;28;20030;-73
2024/01/18 19:53:50;;;;;;;53.72;49.33;;;8.90;84.90;;;;;;12687890;28;20454;-73
2024/01/18 19:59:52;;;;;;;46.00;42.25;;;8.90;85.40;;;;;;12706334;28;20032;-73
2024/01/18 20:05:54;;;;;;;50.03;45.92;;;9.20;85.10;;;;;;12705428;28;20041;-73
2024/01/18 20:11:55;;;;;;;31.17;27.80;;;9.00;85.00;;;;;;12687066;28;20043;-73
2024/01/18 20:17:59;;;;;;;32.30;26.23;;;8.90;85.20;;;;;;12705981;28;20054;-73
2024/01/18 20:24:00;;;;;;;26.80;23.83;;;8.80;85.40;;;;;;12687276;28;20440;-73
2024/01/18 20:30:02;;;;;;;25.35;22.60;;;8.80;85.40;;;;;;12704692;28;20027;-73
2024/01/18 20:36:04;;;;;;;22.33;19.80;;;8.70;85.40;;;;;;12704591;28;20347;-73
2024/01/18 20:42:06;;;;;;;30.75;27.75;;;8.70;85.50;;;;;;12704245;28;20039;-73
2024/01/18 20:48:07;;;;;;;38.35;28.30;;;8.70;85.50;;;;;;12704278;28;20028;-73
2024/01/18 20:54:09;;;;;;;47.25;43.25;;;8.70;85.60;;;;;;12691801;28;20035;-73
2024/01/18 21:00:12;;;;;;;44.67;40.90;;;8.70;85.80;;;;;;12679264;28;20047;-73
2024/01/18 21:06:13;;;;;;;39.20;35.72;;;9.10;85.70;;;;;;12714147;28;20050;-73
2024/01/18 21:12:19;;;;;;;91.88;86.78;;;9.30;85.50;;;;;;12695890;28;20046;-74
2024/01/18 21:18:21;;;;;;;50.83;47.42;;;9.20;85.20;;;;;;12713535;28;20038;-74
2024/01/18 21:24:25;;;;;;;48.75;45.00;;;9.00;85.40;;;;;;12713253;28;20036;-74
2024/01/18 21:30:28;;;;;;;77.00;72.38;;;8.90;85.60;;;;;;12713176;28;20355;-74
2024/01/18 21:36:29;;;;;;;80.05;75.03;;;9.10;85.80;;;;;;12712702;28;20024;-74
2024/01/18 21:42:32;;;;;;;99.85;93.28;;;9.20;85.50;;;;;;12712425;28;20339;-73
2024/01/18 21:48:42;;;;;;;157.85;149.82;;;9.40;85.40;;;;;;12712190;28;20036;-73
2024/01/18 21:54:43;;;;;;;92.60;86.30;;;9.50;85.20;;;;;;12711928;28;20036;-74
2024/01/18 22:00:45;;;;;;;105.88;99.70;;;9.30;85.00;;;;;;12711873;28;20039;-74
2024/01/18 22:06:49;;;;;;;70.25;65.43;;;9.10;85.40;;;;;;12693582;28;20028;-73
2024/01/18 22:12:51;;;;;;;55.30;50.97;;;9.00;85.50;;;;;;12693581;28;20031;-73
2024/01/18 22:18:53;;;;;;;63.13;58.00;;;8.90;85.60;;;;;;12710831;28;20459;-73
2024/01/18 22:24:57;;;;;;;43.78;40.13;;;8.80;85.60;;;;;;12692336;28;20052;-73
2024/01/18 22:30:59;;;;;;;25.98;23.25;;;8.70;85.80;;;;;;12691953;28;20031;-73
2024/01/18 22:37:37;;;;;;;30.05;26.80;;;8.70;85.80;;;;;;12691722;28;20023;-73
2024/01/18 22:43:39;;;;;;;23.38;20.50;;;8.70;85.90;;;;;;12709356;28;20028;-73
2024/01/18 22:49:41;;;;;;;39.35;28.58;;;8.60;85.70;;;;;;12709213;28;20024;-73
2024/01/18 22:55:42;;;;;;;36.00;29.73;;;8.70;86.00;;;;;;12708800;28;20031;-73
2024/01/18 23:01:44;;;;;;;49.58;45.40;;;9.00;85.90;;;;;;12671461;22;20527;-73
2024/01/18 23:07:46;;;;;;;76.78;71.63;;;9.20;85.70;;;;;;12657522;28;20024;-73
2024/01/18 23:13:48;;;;;;;81.32;76.55;;;9.30;85.50;;;;;;12639157;28;20078;-73
2024/01/18 23:19:50;;;;;;;53.70;49.83;;;9.20;85.40;;;;;;12638944;28;20546;-73
2024/01/18 23:25:52;;;;;;;45.25;41.50;;;8.90;85.60;;;;;;12656655;28;20341;-73
2024/01/18 23:31:54;;;;;;;59.72;54.80;;;8.90;85.70;;;;;;12656975;28;20043;-73
2024/01/18 23:37:57;;;;;;;45.67;42.25;;;8.80;85.70;;;;;;12637487;28;20329;-73
2024/01/18 23:43:59;;;;;;;44.15;40.05;;;8.70;85.80;;;;;;12655813;28;20110;-73
2024/01/18 23:50:01;;;;;;;29.15;26.55;;;8.60;86.10;;;;;;12655613;28;20428;-73
2024/01/18 23:56:03;;;;;;;49.67;44.83;;;8.70;86.00;;;;;;12655251;28;20032;-73
